Time;durP1;ratioP1;P1;durP2;ratioP2;P2;SDS_P1;SDS_P2;PMS_P1;PMS_P2;Temp;Humidity;BMP_temperature;BMP_pressure;BME280_temperature;BME280_humidity;BME280_pressure;Samples;Min_cycle;Max_cycle;Signal;HPM_P1;HPM_P2
2023/11/20 00:00:58;;;;;;;1.37;0.40;;;;;;;11.90;100.00;99259.63;4936551;29;20236;-82
2023/11/20 00:03:24;;;;;;;0.37;0.33;;;;;;;11.70;100.00;99230.88;4935744;29;20217;-82
2023/11/20 00:05:52;;;;;;;1.70;0.80;;;;;;;11.83;100.00;99208.50;4936408;29;20206;-82
2023/11/20 00:08:18;;;;;;;0.50;0.50;;;;;;;11.86;100.00;99195.28;4934974;28;20265;-82
2023/11/20 00:10:45;;;;;;;0.50;0.40;;;;;;;11.75;100.00;99196.66;4936480;29;20236;-82
2023/11/20 00:13:11;;;;;;;0.50;0.50;;;;;;;11.80;100.00;99182.47;4936297;29;20700;-83
2023/11/20 00:15:38;;;;;;;0.73;0.50;;;;;;;11.94;100.00;99186.28;4937228;29;20206;-82
2023/11/20 00:18:04;;;;;;;0.40;0.40;;;;;;;11.71;100.00;99177.66;4940247;29;20206;-82
2023/11/20 00:20:31;;;;;;;0.40;0.33;;;;;;;11.84;100.00;99168.34;4939897;29;20225;-83
2023/11/20 00:22:59;;;;;;;1.10;0.50;;;;;;;11.90;100.00;99175.13;4940273;29;20214;-82
2023/11/20 00:25:25;;;;;;;0.87;0.50;;;;;;;11.95;100.00;99180.13;4939743;29;20210;-83
2023/11/20 00:27:52;;;;;;;1.40;0.80;;;;;;;12.06;100.00;99183.13;4939676;29;20234;-83
2023/11/20 00:30:18;;;;;;;0.57;0.50;;;;;;;12.14;100.00;99198.47;4936234;29;20237;-82
2023/11/20 00:32:45;;;;;;;0.40;0.40;;;;;;;11.96;100.00;99200.16;4938173;29;20201;-82
2023/11/20 00:35:14;;;;;;;0.50;0.50;;;;;;;12.06;100.00;99215.34;4939179;29;20209;-82
2023/11/20 00:37:41;;;;;;;0.50;0.50;;;;;;;12.00;100.00;99186.84;4938707;29;20214;-82
2023/11/20 00:40:11;;;;;;;0.53;0.53;;;;;;;12.03;100.00;99183.25;4939281;29;20233;-83
2023/11/20 00:42:37;;;;;;;1.03;0.50;;;;;;;12.08;100.00;99192.59;4939356;29;20297;-83
2023/11/20 00:45:04;;;;;;;0.70;0.57;;;;;;;11.88;100.00;99182.97;4938745;29;20209;-82
2023/11/20 00:47:31;;;;;;;0.70;0.60;;;;;;;11.97;100.00;99181.78;4938391;29;20205;-82
2023/11/20 00:49:58;;;;;;;0.60;0.60;;;;;;;12.04;100.00;99185.78;4938363;29;20237;-82
2023/11/20 00:52:24;;;;;;;1.03;0.60;;;;;;;11.95;100.00;99186.19;4938018;29;20206;-82
2023/11/20 00:54:50;;;;;;;0.60;0.60;;;;;;;12.00;100.00;99184.22;4938285;29;20209;-83
2023/11/20 00:57:18;;;;;;;0.50;0.50;;;;;;;11.96;100.00;99182.69;4939462;29;20205;-82
2023/11/20 00:59:46;;;;;;;0.80;0.53;;;;;;;11.96;100.00;99194.91;4939429;29;20236;-82
2023/11/20 01:02:12;;;;;;;0.70;0.70;;;;;;;11.89;100.00;99187.34;4938987;29;20390;-81
2023/11/20 01:04:38;;;;;;;0.40;0.40;;;;;;;12.03;100.00;99189.34;4938734;29;20206;-82
2023/11/20 01:07:05;;;;;;;0.60;0.60;;;;;;;11.99;100.00;99190.41;4938230;29;20573;-82
2023/11/20 01:09:31;;;;;;;0.60;0.60;;;;;;;11.86;100.00;99199.66;4938831;29;20233;-82
2023/11/20 01:11:58;;;;;;;0.93;0.57;;;;;;;11.93;100.00;99180.19;4938856;29;20202;-82
2023/11/20 01:14:26;;;;;;;0.53;0.53;;;;;;;12.04;100.00;99177.09;4938878;29;20206;-82
2023/11/20 01:16:52;;;;;;;0.83;0.60;;;;;;;11.94;100.00;99181.06;4930243;29;20206;-82
2023/11/20 01:19:18;;;;;;;0.50;0.50;;;;;;;12.01;100.00;99172.00;4938239;29;20261;-82
2023/11/20 01:21:45;;;;;;;0.50;0.50;;;;;;;11.98;100.00;99186.06;4938090;29;20220;-83
2023/11/20 01:24:11;;;;;;;0.93;0.60;;;;;;;12.07;100.00;99195.25;4940474;29;20240;-82
2023/11/20 01:26:38;;;;;;;0.60;0.60;;;;;;;12.08;100.00;99200.44;4938273;29;20582;-82
2023/11/20 01:29:04;;;;;;;0.80;0.50;;;;;;;11.97;100.00;99202.69;4937048;29;20869;-83
2023/11/20 01:31:32;;;;;;;0.57;0.57;;;;;;;11.95;100.00;99182.75;4937465;28;20234;-82
2023/11/20 01:33:58;;;;;;;1.43;0.53;;;;;;;12.11;100.00;99186.38;4939715;29;20209;-82
2023/11/20 01:36:25;;;;;;;0.40;0.40;;;;;;;12.07;100.00;99192.63;4937829;29;20212;-82
2023/11/20 01:38:51;;;;;;;1.43;0.57;;;;;;;12.07;100.00;99201.38;4940083;28;20203;-82
2023/11/20 01:41:18;;;;;;;0.70;0.70;;;;;;;11.78;100.00;99202.63;4938686;29;20236;-82
2023/11/20 01:43:44;;;;;;;1.47;1.37;;;;;;;11.70;100.00;99184.66;4939231;29;20214;-82
2023/11/20 01:46:13;;;;;;;2.30;2.10;;;;;;;11.83;100.00;99160.56;4939078;29;20237;-83
2023/11/20 01:48:42;;;;;;;2.13;1.97;;;;;;;11.91;100.00;99168.94;4938901;29;20786;-83
2023/11/20 01:51:10;;;;;;;1.33;1.20;;;;;;;12.03;100.00;99178.88;4938533;29;20226;-82
2023/11/20 01:53:38;;;;;;;1.70;1.60;;;;;;;11.95;100.00;99167.06;4939177;29;20201;-82
2023/11/20 01:56:06;;;;;;;1.27;1.13;;;;;;;11.86;100.00;99181.38;4940060;29;20209;-82
2023/11/20 01:58:34;;;;;;;1.50;1.40;;;;;;;11.69;100.00;99158.56;4939070;28;20214;-82
2023/11/20 02:01:01;;;;;;;2.00;1.90;;;;;;;11.83;100.00;99158.81;4939312;29;20233;-82
2023/11/20 02:03:27;;;;;;;2.17;2.07;;;;;;;11.85;100.00;99156.13;4939536;29;20214;-81
2023/11/20 02:05:55;;;;;;;1.90;1.80;;;;;;;11.78;100.00;99154.72;4939554;29;20213;-82
2023/11/20 02:08:24;;;;;;;2.60;2.40;;;;;;;11.78;100.00;99152.09;4939261;29;20229;-82
2023/11/20 02:10:50;;;;;;;3.80;3.50;;;;;;;11.88;100.00;99150.75;4938386;29;20233;-82
2023/11/20 02:13:18;;;;;;;3.70;3.40;;;;;;;11.79;100.00;99144.16;4939629;29;20225;-83
2023/11/20 02:15:44;;;;;;;4.27;3.97;;;;;;;11.86;100.00;99132.53;4938853;29;20392;-82
2023/11/20 02:18:29;;;;;;;4.93;4.57;;;;;;;11.58;100.00;99132.91;4938960;29;20208;-83
2023/11/20 02:20:57;;;;;;;4.83;4.37;;;;;;;11.61;100.00;99119.69;4938453;29;20266;-81
2023/11/20 02:23:24;;;;;;;3.90;3.70;;;;;;;11.82;100.00;99136.19;4938958;29;20206;-82
2023/11/20 02:26:01;;;;;;;4.67;4.37;;;;;;;11.72;100.00;99143.59;4939589;29;20210;-83
2023/11/20 02:28:36;;;;;;;5.47;4.97;;;;;;;11.86;100.00;99148.22;4939098;29;20243;-82
2023/11/20 02:31:04;;;;;;;4.90;4.50;;;;;;;11.75;100.00;99168.75;4937726;29;20312;-82
2023/11/20 02:33:34;;;;;;;5.00;4.60;;;;;;;11.94;100.00;99167.97;4939053;29;20210;-81
2023/11/20 02:36:03;;;;;;;5.40;4.90;;;;;;;11.92;100.00;99178.50;4939280;29;20202;-82
2023/11/20 02:38:29;;;;;;;5.93;5.37;;;;;;;11.76;100.00;99170.47;4939274;29;20594;-82
2023/11/20 02:40:56;;;;;;;5.80;5.30;;;;;;;11.90;100.00;99170.72;4938344;29;20221;-82
2023/11/20 02:43:22;;;;;;;4.10;3.70;;;;;;;11.84;100.00;99176.19;4938862;29;20209;-82
2023/11/20 02:45:48;;;;;;;4.53;4.13;;;;;;;12.01;100.00;99172.88;4938172;29;20213;-82
2023/11/20 02:48:16;;;;;;;4.23;3.93;;;;;;;11.95;100.00;99174.91;4938736;29;20214;-82
2023/11/20 02:50:42;;;;;;;3.63;3.33;;;;;;;11.82;100.00;99167.56;4937534;29;20244;-82
2023/11/20 02:53:09;;;;;;;3.90;3.60;;;;;;;11.80;100.00;99186.88;4939174;29;20209;-82
2023/11/20 02:55:36;;;;;;;3.40;3.20;;;;;;;11.96;100.00;99171.38;4938616;29;20209;-82
2023/11/20 02:58:03;;;;;;;3.70;3.40;;;;;;;12.03;100.00;99193.69;4937679;29;20206;-82
2023/11/20 03:00:29;;;;;;;2.70;2.50;;;;;;;11.90;100.00;99209.09;4938090;29;20232;-81
2023/11/20 03:02:56;;;;;;;2.53;2.27;;;;;;;11.98;100.00;99217.47;4938702;29;20209;-82
2023/11/20 03:05:24;;;;;;;2.20;2.07;;;;;;;12.03;100.00;99225.97;4939614;29;20205;-82
2023/11/20 03:07:51;;;;;;;1.83;1.73;;;;;;;12.00;100.00;99227.84;4938411;29;20201;-81
2023/11/20 03:10:18;;;;;;;8.90;2.67;;;;;;;12.13;100.00;99215.94;4938929;29;20788;-82
2023/11/20 03:12:45;;;;;;;2.37;2.17;;;;;;;11.89;100.00;99238.78;4938609;29;20210;-81
2023/11/20 03:15:11;;;;;;;2.87;2.50;;;;;;;12.07;100.00;99226.66;4937196;29;20676;-83
2023/11/20 03:17:38;;;;;;;1.77;1.67;;;;;;;12.19;100.00;99239.19;4938780;29;20256;-82
2023/11/20 03:20:06;;;;;;;1.97;1.80;;;;;;;12.10;100.00;99234.38;4938953;29;20225;-81
2023/11/20 03:22:33;;;;;;;1.23;1.20;;;;;;;11.96;100.00;99249.84;4938762;29;20240;-82
2023/11/20 03:25:00;;;;;;;1.73;1.30;;;;;;;12.04;100.00;99229.41;4937905;29;20210;-80
2023/11/20 03:27:26;;;;;;;2.03;1.60;;;;;;;12.08;100.00;99236.22;4937576;29;20229;-82
2023/11/20 03:29:53;;;;;;;1.83;1.50;;;;;;;12.20;100.00;99224.34;4937543;29;20237;-82
2023/11/20 03:32:19;;;;;;;1.70;1.60;;;;;;;12.15;100.00;99239.38;4937389;29;20213;-82
2023/11/20 03:34:46;;;;;;;1.47;1.37;;;;;;;12.14;100.00;99233.31;4938232;29;20218;-81
2023/11/20 03:37:12;;;;;;;1.97;1.87;;;;;;;11.98;100.00;99238.38;4936595;29;20209;-81
2023/11/20 03:39:40;;;;;;;2.17;2.07;;;;;;;12.00;100.00;99214.78;4937726;29;20241;-80
2023/11/20 03:42:07;;;;;;;2.10;1.93;;;;;;;12.05;100.00;99205.81;4937100;29;20213;-82
2023/11/20 03:44:33;;;;;;;3.13;2.30;;;;;;;11.80;100.00;99192.94;4938396;29;20210;-82
2023/11/20 03:47:00;;;;;;;2.90;2.70;;;;;;;11.83;100.00;99181.50;4938068;29;20597;-83
2023/11/20 03:49:26;;;;;;;2.77;2.57;;;;;;;11.80;100.00;99197.31;4937797;29;20225;-82
2023/11/20 03:51:52;;;;;;;3.97;3.00;;;;;;;11.78;100.00;99186.09;4937734;29;20205;-83
2023/11/20 03:54:19;;;;;;;3.23;3.03;;;;;;;11.78;100.00;99157.31;4941851;29;20233;-82
2023/11/20 03:56:47;;;;;;;3.33;3.03;;;;;;;11.92;100.00;99178.50;4941458;29;20207;-82
2023/11/20 03:59:15;;;;;;;5.03;4.53;;;;;;;11.62;100.00;99173.69;4941396;29;20202;-82
2023/11/20 04:01:41;;;;;;;5.20;4.70;;;;;;;11.72;100.00;99151.44;4941065;29;20220;-81
2023/11/20 04:04:08;;;;;;;5.47;5.17;;;;;;;11.86;100.00;99144.75;4941655;29;20206;-82
2023/11/20 04:06:34;;;;;;;6.93;5.40;;;;;;;11.74;100.00;99174.91;4941554;29;20206;-82
2023/11/20 04:09:02;;;;;;;6.33;5.73;;;;;;;11.79;100.00;99162.47;4940756;29;20225;-82
2023/11/20 04:11:28;;;;;;;6.23;5.77;;;;;;;11.85;100.00;99161.34;4940864;29;20225;-82
2023/11/20 04:13:56;;;;;;;6.00;5.60;;;;;;;11.79;100.00;99172.91;4941362;29;20642;-82
2023/11/20 04:16:22;;;;;;;5.70;5.30;;;;;;;11.81;100.00;99171.09;4941718;29;20226;-81
2023/11/20 04:18:49;;;;;;;6.07;5.57;;;;;;;11.60;100.00;99183.34;4941862;29;20214;-82
2023/11/20 04:21:16;;;;;;;5.90;5.40;;;;;;;11.92;100.00;99181.97;4940427;29;20234;-82
2023/11/20 04:23:42;;;;;;;5.50;5.00;;;;;;;11.85;100.00;99188.38;4941105;29;20229;-83
2023/11/20 04:26:09;;;;;;;3.93;3.63;;;;;;;11.86;100.00;99191.81;4939781;29;20217;-82
2023/11/20 04:28:35;;;;;;;3.90;3.60;;;;;;;11.76;100.00;99194.00;4938362;29;20209;-82
2023/11/20 04:31:03;;;;;;;3.63;3.40;;;;;;;11.98;100.00;99195.69;4939684;29;20245;-83
2023/11/20 04:33:30;;;;;;;3.13;2.93;;;;;;;11.93;100.00;99203.72;4941571;29;20256;-84
2023/11/20 04:35:56;;;;;;;3.20;3.00;;;;;;;11.98;100.00;99203.53;4940171;29;20265;-83
2023/11/20 04:38:28;;;;;;;3.37;3.10;;;;;;;11.89;100.00;99210.00;4941608;29;20209;-83
2023/11/20 04:40:54;;;;;;;4.20;3.90;;;;;;;11.63;100.00;99185.81;4941513;29;20260;-83
2023/11/20 04:43:21;;;;;;;3.73;3.43;;;;;;;11.80;100.00;99200.78;4941059;29;20214;-82
2023/11/20 04:45:47;;;;;;;3.40;3.10;;;;;;;11.79;100.00;99203.44;4932654;29;20692;-81
2023/11/20 04:48:16;;;;;;;3.13;2.90;;;;;;;11.81;100.00;99201.63;4940316;29;20206;-84
2023/11/20 04:50:43;;;;;;;3.30;3.10;;;;;;;11.91;100.00;99201.19;4938662;29;20274;-83
2023/11/20 04:53:09;;;;;;;4.37;4.00;;;;;;;11.95;100.00;99211.50;4938494;29;20213;-80
2023/11/20 04:55:36;;;;;;;2.67;2.50;;;;;;;11.92;100.00;99210.72;4939754;29;20218;-82
2023/11/20 04:58:02;;;;;;;2.63;2.43;;;;;;;11.95;100.00;99214.13;4932716;29;20219;-81
2023/11/20 05:00:29;;;;;;;3.60;2.67;;;;;;;11.87;100.00;99217.03;4939550;29;20222;-81
2023/11/20 05:02:56;;;;;;;3.43;3.10;;;;;;;11.77;100.00;99192.22;4939060;29;20252;-82
2023/11/20 05:05:23;;;;;;;3.37;3.07;;;;;;;11.86;100.00;99179.59;4939306;29;20209;-82
2023/11/20 05:07:50;;;;;;;3.20;2.60;;;;;;;11.83;100.00;99184.97;4939935;29;20217;-82
2023/11/20 05:10:16;;;;;;;2.80;2.60;;;;;;;11.88;100.00;99190.00;4939943;29;20229;-82
2023/11/20 05:12:43;;;;;;;2.87;2.77;;;;;;;11.76;100.00;99178.31;4940086;29;20600;-81
2023/11/20 05:15:10;;;;;;;3.60;3.17;;;;;;;11.76;100.00;99182.69;4940253;29;20207;-81
2023/11/20 05:17:36;;;;;;;4.00;3.70;;;;;;;11.63;100.00;99172.75;4940563;29;20216;-82
2023/11/20 05:20:06;;;;;;;3.77;3.57;;;;;;;11.70;100.00;99179.41;4937326;29;20230;-81
2023/11/20 05:22:34;;;;;;;4.53;4.10;;;;;;;11.68;100.00;99188.25;4933510;29;20205;-82
2023/11/20 05:25:00;;;;;;;5.53;5.13;;;;;;;11.74;100.00;99203.66;4938322;29;20687;-82
2023/11/20 05:27:27;;;;;;;6.20;5.60;;;;;;;11.68;100.00;99196.09;4939260;29;20206;-82
2023/11/20 05:29:53;;;;;;;4.83;4.53;;;;;;;11.55;100.00;99195.75;4938588;29;20234;-82
2023/11/20 05:32:20;;;;;;;5.23;4.80;;;;;;;11.64;100.00;99195.38;4937375;29;20259;-80
2023/11/20 05:34:46;;;;;;;4.10;3.80;;;;;;;11.79;100.00;99186.00;4938920;29;20209;-82
2023/11/20 05:37:13;;;;;;;3.47;3.20;;;;;;;11.63;100.00;99203.28;4937875;29;20755;-79
2023/11/20 05:39:41;;;;;;;2.87;2.67;;;;;;;11.83;100.00;99202.41;4939155;29;20253;-82
2023/11/20 05:42:08;;;;;;;3.07;2.87;;;;;;;11.82;100.00;99219.88;4939910;29;20225;-82
2023/11/20 05:44:34;;;;;;;2.90;2.70;;;;;;;11.73;100.00;99230.72;4940556;29;20212;-82
2023/11/20 05:47:00;;;;;;;2.40;2.20;;;;;;;11.83;100.00;99241.63;4938973;29;20217;-82
2023/11/20 05:49:27;;;;;;;4.90;2.50;;;;;;;11.86;100.00;99251.97;4939124;29;20244;-82
2023/11/20 05:51:53;;;;;;;2.60;2.40;;;;;;;11.94;100.00;99252.50;4939163;29;20215;-82
2023/11/20 05:54:20;;;;;;;1.90;1.80;;;;;;;11.94;100.00;99267.34;4940055;29;20233;-83
2023/11/20 05:56:48;;;;;;;2.20;2.00;;;;;;;11.90;100.00;99285.78;4939064;29;20217;-82
2023/11/20 05:59:14;;;;;;;2.60;2.40;;;;;;;12.03;100.00;99293.97;4939595;29;20206;-81
2023/11/20 06:01:41;;;;;;;2.27;2.13;;;;;;;12.04;100.00;99302.66;4939240;29;20221;-81
2023/11/20 06:04:08;;;;;;;2.53;2.33;;;;;;;11.99;100.00;99315.94;4939860;29;20701;-82
2023/11/20 06:06:36;;;;;;;2.40;2.30;;;;;;;11.75;100.00;99309.06;4939684;29;20233;-84
2023/11/20 06:09:03;;;;;;;2.60;2.40;;;;;;;11.77;100.00;99283.72;4939829;29;20851;-82
2023/11/20 06:11:30;;;;;;;2.50;2.27;;;;;;;11.75;100.00;99286.38;4939140;28;20316;-80
2023/11/20 06:13:58;;;;;;;3.13;2.77;;;;;;;11.72;100.00;99273.47;4940214;29;20652;-83
2023/11/20 06:16:25;;;;;;;3.33;3.00;;;;;;;11.92;100.00;99281.34;4939742;29;20209;-83
2023/11/20 06:18:52;;;;;;;3.00;2.70;;;;;;;11.72;100.00;99294.38;4932137;29;20720;-82
2023/11/20 06:21:18;;;;;;;2.43;2.33;;;;;;;11.72;100.00;99289.16;4938883;29;20226;-83
2023/11/20 06:23:45;;;;;;;3.83;3.63;;;;;;;11.57;100.00;99279.34;4940568;29;20725;-84
2023/11/20 06:26:12;;;;;;;4.30;3.97;;;;;;;11.52;100.00;99251.63;4940641;29;20206;-82
2023/11/20 06:28:40;;;;;;;5.33;4.40;;;;;;;11.61;100.00;99253.00;4940178;29;20269;-83
2023/11/20 06:31:08;;;;;;;5.47;5.07;;;;;;;11.55;100.00;99250.63;4940472;29;20237;-83
2023/11/20 06:33:34;;;;;;;6.33;5.73;;;;;;;11.70;100.00;99257.00;4941145;29;20202;-83
2023/11/20 06:36:02;;;;;;;6.10;5.57;;;;;;;11.59;100.00;99246.13;4940357;29;20218;-83
2023/11/20 06:38:29;;;;;;;5.63;5.13;;;;;;;11.60;100.00;99261.75;4942253;29;20209;-83
2023/11/20 06:40:55;;;;;;;6.97;5.87;;;;;;;11.59;100.00;99260.06;4957204;29;20209;-82
2023/11/20 06:43:22;;;;;;;7.23;6.07;;;;;;;11.60;100.00;99284.44;4957806;28;20213;-84
2023/11/20 06:45:49;;;;;;;7.63;6.83;;;;;;;11.77;100.00;99294.19;4955845;29;20264;-82
2023/11/20 06:48:17;;;;;;;7.33;6.23;;;;;;;11.83;100.00;99292.16;4957975;29;20202;-83
2023/11/20 06:50:44;;;;;;;6.00;5.60;;;;;;;11.76;100.00;99290.72;4957209;29;20229;-82
2023/11/20 06:53:10;;;;;;;5.37;4.87;;;;;;;11.58;100.00;99307.19;4947375;29;20222;-82
2023/11/20 06:55:37;;;;;;;4.73;4.30;;;;;;;11.83;100.00;99297.41;4936966;29;20594;-83
2023/11/20 06:58:04;;;;;;;4.83;4.37;;;;;;;11.56;100.00;99303.78;4938113;29;20205;-82
2023/11/20 07:00:30;;;;;;;5.93;5.13;;;;;;;11.74;100.00;99284.72;4936973;29;20222;-83
2023/11/20 07:02:57;;;;;;;5.67;4.80;;;;;;;11.84;100.00;99291.25;4938141;29;20261;-82
2023/11/20 07:05:25;;;;;;;4.70;4.37;;;;;;;11.93;100.00;99316.16;4938356;29;20233;-83
2023/11/20 07:07:52;;;;;;;4.30;4.00;;;;;;;11.67;100.00;99327.69;4938592;29;20205;-82
2023/11/20 07:10:23;;;;;;;6.10;4.33;;;;;;;11.78;100.00;99315.03;4938229;29;20233;-83
2023/11/20 07:12:49;;;;;;;4.60;4.17;;;;;;;11.72;100.00;99331.81;4937529;29;20560;-82
2023/11/20 07:15:16;;;;;;;4.73;4.30;;;;;;;11.85;100.00;99329.56;4938194;29;20209;-82
2023/11/20 07:17:42;;;;;;;5.77;5.27;;;;;;;11.74;100.00;99331.78;4939012;28;20212;-82
2023/11/20 07:20:10;;;;;;;5.03;4.53;;;;;;;11.91;100.00;99331.94;4938734;28;20230;-82
2023/11/20 07:22:38;;;;;;;4.93;4.53;;;;;;;11.66;100.00;99344.31;4938039;29;20213;-82
2023/11/20 07:25:05;;;;;;;5.27;4.80;;;;;;;11.90;100.00;99337.22;4938180;29;20209;-83
2023/11/20 07:27:32;;;;;;;4.37;3.97;;;;;;;11.71;100.00;99340.59;4939264;28;20213;-82
2023/11/20 07:29:58;;;;;;;5.07;4.50;;;;;;;11.85;100.00;99349.59;4942126;29;20237;-82
2023/11/20 07:32:25;;;;;;;4.83;4.43;;;;;;;11.80;100.00;99349.81;4941723;29;20205;-83
2023/11/20 07:34:51;;;;;;;4.30;4.00;;;;;;;11.36;100.00;99331.56;4942341;29;20212;-83
2023/11/20 07:37:18;;;;;;;3.80;3.40;;;;;;;11.52;100.00;99327.41;4941947;29;20232;-82
2023/11/20 07:39:46;;;;;;;2.97;2.80;;;;;;;11.61;100.00;99320.09;4942278;29;20237;-82
2023/11/20 07:42:14;;;;;;;3.20;2.90;;;;;;;11.51;100.00;99311.78;4942219;29;20205;-82
2023/11/20 07:44:41;;;;;;;3.47;3.17;;;;;;;11.47;100.00;99320.66;4942352;29;20280;-82
2023/11/20 07:47:07;;;;;;;4.60;4.20;;;;;;;11.65;100.00;99321.69;4941522;28;20213;-82
2023/11/20 07:49:34;;;;;;;4.80;4.30;;;;;;;11.63;100.00;99345.25;4942544;29;20205;-82
2023/11/20 07:52:00;;;;;;;5.30;4.90;;;;;;;11.59;100.00;99341.06;4940691;29;20229;-82
2023/11/20 07:54:26;;;;;;;5.20;4.80;;;;;;;11.31;100.00;99333.50;4942975;29;20210;-82
2023/11/20 07:56:54;;;;;;;4.80;4.43;;;;;;;11.56;100.00;99324.69;4942283;29;20211;-82
2023/11/20 07:59:21;;;;;;;5.20;4.80;;;;;;;11.56;100.00;99322.06;4941891;29;20545;-82
2023/11/20 08:01:47;;;;;;;4.40;4.10;;;;;;;11.77;100.00;99343.84;4942160;29;20201;-82
2023/11/20 08:04:16;;;;;;;4.70;4.20;;;;;;;11.69;100.00;99357.22;4942049;29;20217;-83
2023/11/20 08:06:42;;;;;;;4.40;4.00;;;;;;;11.71;100.00;99337.97;4941639;29;20668;-83
2023/11/20 08:09:11;;;;;;;4.60;4.30;;;;;;;11.81;100.00;99338.41;4942426;29;20209;-82
2023/11/20 08:11:38;;;;;;;3.90;3.33;;;;;;;11.61;100.00;99362.78;4941925;29;20289;-81
2023/11/20 08:14:05;;;;;;;3.17;2.90;;;;;;;11.85;100.00;99370.53;4942228;29;20625;-82
2023/11/20 08:16:32;;;;;;;3.93;2.20;;;;;;;11.64;100.00;99373.13;4941391;29;20209;-81
2023/11/20 08:19:00;;;;;;;2.77;2.47;;;;;;;11.69;100.00;99358.09;4940731;29;20210;-82
2023/11/20 08:21:27;;;;;;;2.67;2.23;;;;;;;11.61;100.00;99359.31;4941377;29;20249;-82
2023/11/20 08:23:53;;;;;;;2.03;1.83;;;;;;;11.71;100.00;99358.03;4942320;29;20205;-83
2023/11/20 08:26:20;;;;;;;3.93;2.20;;;;;;;11.77;100.00;99355.16;4941304;29;20213;-82
2023/11/20 08:28:46;;;;;;;2.83;1.90;;;;;;;11.66;100.00;99365.22;4941315;29;20214;-82
2023/11/20 08:31:14;;;;;;;1.70;1.60;;;;;;;11.60;100.00;99366.31;4939786;29;20253;-82
2023/11/20 08:33:41;;;;;;;2.03;1.53;;;;;;;11.31;100.00;99351.78;4939859;29;20252;-82
2023/11/20 08:36:08;;;;;;;3.13;1.60;;;;;;;11.57;100.00;99345.50;4941328;29;20268;-81
2023/11/20 08:38:35;;;;;;;2.20;2.00;;;;;;;11.69;100.00;99349.41;4941756;29;20213;-82
2023/11/20 08:41:02;;;;;;;2.93;2.60;;;;;;;11.55;100.00;99355.19;4942106;29;20232;-82
2023/11/20 08:43:28;;;;;;;2.97;2.70;;;;;;;11.57;100.00;99355.13;4935120;29;20206;-82
2023/11/20 08:45:55;;;;;;;4.67;3.00;;;;;;;11.48;100.00;99341.53;4941854;29;20242;-83
2023/11/20 08:48:23;;;;;;;2.70;2.50;;;;;;;11.57;100.00;99342.06;4941604;29;20221;-81
2023/11/20 08:50:49;;;;;;;2.50;2.30;;;;;;;11.57;100.00;99340.28;4940617;28;20242;-81
2023/11/20 08:53:16;;;;;;;4.67;2.83;;;;;;;11.49;100.00;99352.81;4940180;29;20216;-82
2023/11/20 08:55:42;;;;;;;3.60;3.30;;;;;;;11.59;100.00;99354.16;4941304;29;20262;-82
2023/11/20 08:58:09;;;;;;;2.90;2.50;;;;;;;11.63;100.00;99367.94;4940827;29;20216;-79
2023/11/20 09:00:35;;;;;;;3.17;2.80;;;;;;;11.69;100.00;99378.16;4941014;29;20241;-82
2023/11/20 09:03:02;;;;;;;4.50;3.00;;;;;;;11.63;100.00;99386.25;4941627;29;20209;-82
2023/11/20 09:05:29;;;;;;;3.63;3.23;;;;;;;11.56;100.00;99372.56;4940553;29;20591;-82
2023/11/20 09:07:56;;;;;;;3.90;3.60;;;;;;;11.66;100.00;99378.28;4940850;29;20212;-81
2023/11/20 09:10:23;;;;;;;4.10;3.80;;;;;;;11.70;100.00;99390.31;4940681;28;20238;-82
2023/11/20 09:12:50;;;;;;;3.77;3.33;;;;;;;11.60;100.00;99396.84;4939645;29;20736;-82
2023/11/20 09:15:16;;;;;;;3.93;3.53;;;;;;;11.68;100.00;99405.22;4940240;29;20220;-81
2023/11/20 09:17:44;;;;;;;3.90;3.60;;;;;;;11.71;100.00;99405.94;4941131;29;20210;-80
2023/11/20 09:20:12;;;;;;;5.00;3.90;;;;;;;11.66;100.00;99423.56;4940776;29;20733;-82
2023/11/20 09:22:40;;;;;;;8.17;4.40;;;;;;;11.36;100.00;99424.75;4940308;29;20585;-81
2023/11/20 09:25:07;;;;;;;5.17;4.67;;;;;;;11.72;100.00;99412.03;4941477;29;20233;-80
2023/11/20 09:27:34;;;;;;;6.30;5.70;;;;;;;11.58;100.00;99398.66;4941003;28;20216;-81
2023/11/20 09:30:00;;;;;;;11.13;6.63;;;;;;;11.54;100.00;99403.16;4940161;29;20599;-81
2023/11/20 09:32:27;;;;;;;7.50;6.90;;;;;;;11.73;100.00;99405.88;4940348;29;20225;-81
2023/11/20 09:34:54;;;;;;;7.03;6.43;;;;;;;11.70;100.00;99419.06;4940840;29;20721;-81
2023/11/20 09:37:20;;;;;;;6.73;6.03;;;;;;;11.49;100.00;99424.22;4939150;29;20680;-81
2023/11/20 09:39:48;;;;;;;8.57;6.87;;;;;;;11.55;100.00;99407.44;4939342;29;20229;-80
2023/11/20 09:42:15;;;;;;;7.33;6.73;;;;;;;11.39;100.00;99406.34;4939565;29;20213;-81
2023/11/20 09:44:47;;;;;;;6.93;6.20;;;;;;;11.42;100.00;99414.94;4939470;29;20237;-82
2023/11/20 09:47:15;;;;;;;6.90;6.17;;;;;;;11.49;100.00;99416.38;4931522;29;20733;-80
2023/11/20 09:49:44;;;;;;;6.20;5.70;;;;;;;11.59;100.00;99416.03;4938344;29;20239;-81
2023/11/20 09:52:12;;;;;;;7.53;6.73;;;;;;;11.70;100.00;99419.91;4939516;29;20236;-81
2023/11/20 09:54:41;;;;;;;7.33;5.87;;;;;;;11.64;100.00;99432.41;4939783;29;20215;-79
2023/11/20 09:57:10;;;;;;;6.00;5.13;;;;;;;11.59;100.00;99421.25;4938651;29;20212;-79
2023/11/20 09:59:36;;;;;;;7.47;6.63;;;;;;;11.52;100.00;99421.50;4938641;29;20264;-79
2023/11/20 10:02:03;;;;;;;7.20;6.50;;;;;;;11.35;100.00;99421.31;4938445;29;20243;-79
2023/11/20 10:04:32;;;;;;;8.87;5.17;;;;;;;11.29;100.00;99432.00;4937696;29;20214;-80
2023/11/20 10:07:03;;;;;;;9.20;4.80;;;;;;;11.24;100.00;99432.19;4938074;29;20215;-80
2023/11/20 10:09:31;;;;;;;6.97;5.57;;;;;;;11.38;100.00;99447.31;4938250;29;20214;-78
2023/11/20 10:12:00;;;;;;;12.13;5.97;;;;;;;11.42;100.00;99448.91;4938103;29;20280;-79
2023/11/20 10:14:28;;;;;;;10.67;6.43;;;;;;;11.56;100.00;99461.44;4938438;29;20240;-80
2023/11/20 10:16:56;;;;;;;7.17;6.27;;;;;;;11.56;100.00;99486.72;4938163;28;20234;-80
2023/11/20 10:19:23;;;;;;;7.47;6.57;;;;;;;11.57;100.00;99497.09;4938998;29;20218;-80
2023/11/20 10:21:51;;;;;;;7.43;5.90;;;;;;;11.46;100.00;99507.13;4937396;29;20212;-81
2023/11/20 10:24:19;;;;;;;12.63;6.13;;;;;;;11.59;100.00;99520.56;4939068;29;20277;-80
2023/11/20 10:26:46;;;;;;;8.97;4.90;;;;;;;11.55;100.00;99539.91;4938665;29;20264;-80
2023/11/20 10:29:13;;;;;;;9.33;4.53;;;;;;;11.56;100.00;99557.31;4938645;29;20205;-79
2023/11/20 10:31:45;;;;;;;7.13;5.37;;;;;;;11.64;100.00;99557.88;4936931;29;20230;-79
2023/11/20 10:34:12;;;;;;;6.80;4.53;;;;;;;11.57;100.00;99579.91;4937879;29;20264;-79
2023/11/20 10:36:39;;;;;;;4.90;3.90;;;;;;;11.82;99.80;99585.91;4936891;29;20199;-79
2023/11/20 10:39:07;;;;;;;6.63;4.60;;;;;;;11.43;99.79;99599.53;4938334;29;20265;-80
2023/11/20 10:41:33;;;;;;;13.17;5.47;;;;;;;11.69;100.00;99585.53;4937255;29;20228;-80
2023/11/20 10:44:01;;;;;;;9.17;5.13;;;;;;;11.70;99.04;99592.47;4937841;29;20646;-80
2023/11/20 10:46:28;;;;;;;9.40;4.13;;;;;;;11.74;98.99;99593.19;4937014;29;20213;-80
2023/11/20 10:48:56;;;;;;;6.83;4.40;;;;;;;11.71;98.21;99611.59;4937260;29;20651;-80
2023/11/20 10:51:24;;;;;;;5.90;4.40;;;;;;;11.75;97.86;99614.97;4936778;29;20237;-80
2023/11/20 10:53:58;;;;;;;6.20;5.47;;;;;;;11.58;99.09;99621.69;4937353;29;20213;-79
2023/11/20 10:56:27;;;;;;;9.37;5.70;;;;;;;11.45;100.00;99591.66;4937648;29;20228;-80
2023/11/20 10:58:55;;;;;;;7.00;6.10;;;;;;;11.28;100.00;99593.13;4929324;29;20207;-80
2023/11/20 11:01:23;;;;;;;8.80;6.00;;;;;;;11.46;100.00;99582.91;4936392;29;20233;-80
2023/11/20 11:03:51;;;;;;;6.80;6.20;;;;;;;11.53;100.00;99584.38;4937170;29;20300;-80
2023/11/20 11:06:20;;;;;;;8.73;6.93;;;;;;;11.56;99.36;99599.13;4936364;29;20211;-80
2023/11/20 11:08:50;;;;;;;11.57;8.17;;;;;;;11.28;99.72;99598.34;4937643;29;20209;-79
2023/11/20 11:11:18;;;;;;;12.00;9.03;;;;;;;11.33;100.00;99575.50;4936876;29;20235;-80
2023/11/20 11:13:48;;;;;;;9.27;8.37;;;;;;;11.53;99.53;99587.88;4951415;29;20212;-80
2023/11/20 11:16:22;;;;;;;13.13;7.77;;;;;;;11.20;100.00;99581.22;4936733;29;20221;-80
2023/11/20 11:19:01;;;;;;;10.13;7.73;;;;;;;11.05;100.00;99561.72;4937379;29;20208;-80
2023/11/20 11:21:38;;;;;;;13.87;9.00;;;;;;;11.14;100.00;99545.75;4936220;29;20268;-82
2023/11/20 11:24:10;;;;;;;10.20;9.17;;;;;;;11.24;100.00;99549.72;4937789;29;20213;-81